Terminal Aerodrome Forecast
Issued by NWS

Home | Current Version | Previous Version | Text Only | Print | Product List | Glossary On
Versions: 1 2 3 4 5 6 7 8 9 10 11 12 13
000
FTUS45 KGJT 272338
TAFVEL
TAF
KVEL 272338Z 2800/2824 02006KT P6SM -RA FEW015 BKN040 OVC050
     FM280300 VRB04KT P6SM VCSH OVC040
     FM280600 VRB04KT P6SM -SHRA OVC060
     FM280900 02006KT P6SM VCSH OVC045
     FM281200 07007KT P6SM VCSH OVC060
     FM281800 36015G24KT P6SM OVC040=

USA.gov is the U.S. government's official web portal to all federal, state and local government web resources and services.